Time;durP1;ratioP1;P1;durP2;ratioP2;P2;SDS_P1;SDS_P2;PMS_P1;PMS_P2;Temp;Humidity;BMP_temperature;BMP_pressure;BME280_temperature;BME280_humidity;BME280_pressure;Samples;Min_cycle;Max_cycle;Signal;HPM_P1;HPM_P2
2023/11/22 00:02:18;;;;;;;6.65;1.40;;;24.60;41.10;;;;;;5034370;28;20029;-62
2023/11/22 00:04:44;;;;;;;3.90;1.02;;;24.50;41.40;;;;;;5033950;28;20105;-62
2023/11/22 00:07:11;;;;;;;10.68;1.50;;;24.30;41.80;;;;;;5033742;28;20029;-61
2023/11/22 00:09:37;;;;;;;18.95;7.78;;;24.30;42.60;;;;;;5033353;28;20037;-62
2023/11/22 00:12:04;;;;;;;5.30;1.55;;;24.20;42.30;;;;;;5032444;28;20134;-63
2023/11/22 00:14:30;;;;;;;7.90;1.45;;;24.10;42.50;;;;;;5033144;28;20048;-60
2023/11/22 00:16:57;;;;;;;9.13;1.42;;;24.00;42.90;;;;;;5030130;28;20034;-61
2023/11/22 00:19:23;;;;;;;8.68;3.42;;;23.90;42.90;;;;;;5033912;28;20056;-60
2023/11/22 00:21:50;;;;;;;16.92;4.63;;;23.80;43.00;;;;;;5035484;28;20029;-63
2023/11/22 00:24:18;;;;;;;14.45;9.13;;;23.70;43.40;;;;;;5032335;28;20486;-62
2023/11/22 00:26:44;;;;;;;9.90;2.17;;;23.60;43.70;;;;;;5036872;28;20043;-61
2023/11/22 00:29:11;;;;;;;9.02;1.50;;;23.50;44.00;;;;;;5035397;28;20548;-61
2023/11/22 00:31:38;;;;;;;9.25;1.67;;;23.40;43.80;;;;;;5031789;28;20033;-63
2023/11/22 00:34:04;;;;;;;11.07;1.77;;;23.30;44.00;;;;;;5035295;28;20122;-63
2023/11/22 00:36:31;;;;;;;11.93;1.52;;;23.20;44.20;;;;;;5033035;28;20044;-64
2023/11/22 00:38:57;;;;;;;8.82;1.83;;;23.10;44.50;;;;;;5031994;28;20087;-64
2023/11/22 00:41:24;;;;;;;15.32;1.80;;;23.00;44.70;;;;;;5035415;28;20063;-64
2023/11/22 00:43:50;;;;;;;21.92;11.32;;;23.00;45.00;;;;;;5031755;28;20088;-64
2023/11/22 00:46:16;;;;;;;16.50;1.98;;;22.80;45.20;;;;;;5032912;28;20134;-62
2023/11/22 00:48:43;;;;;;;12.70;2.05;;;22.80;45.20;;;;;;5031707;28;20037;-62
2023/11/22 00:51:10;;;;;;;12.80;1.67;;;22.70;45.60;;;;;;5033837;28;20155;-60
2023/11/22 00:53:37;;;;;;;7.10;1.73;;;22.60;45.90;;;;;;5032522;28;20038;-61
2023/11/22 00:56:06;;;;;;;12.48;1.52;;;22.50;46.00;;;;;;5034601;28;20045;-62
2023/11/22 00:58:32;;;;;;;8.65;1.70;;;22.40;46.10;;;;;;5033651;28;20115;-61
2023/11/22 01:00:59;;;;;;;11.60;1.80;;;22.30;46.30;;;;;;5030438;28;20034;-62
2023/11/22 01:03:25;;;;;;;9.13;2.15;;;22.20;46.60;;;;;;5035191;28;20038;-61
2023/11/22 01:05:52;;;;;;;11.90;1.90;;;22.10;46.40;;;;;;5032979;28;20061;-62
2023/11/22 01:08:19;;;;;;;10.18;1.95;;;22.10;46.60;;;;;;5031926;28;20041;-61
2023/11/22 01:10:45;;;;;;;6.53;1.90;;;22.00;47.40;;;;;;5035149;28;20096;-62
2023/11/22 01:13:14;;;;;;;14.88;2.60;;;21.90;47.00;;;;;;5031186;28;20113;-62
2023/11/22 01:15:41;;;;;;;8.02;2.45;;;21.80;47.10;;;;;;5034230;28;20042;-62
2023/11/22 01:18:09;;;;;;;9.82;2.63;;;21.80;47.10;;;;;;5031654;28;20060;-63
2023/11/22 01:20:35;;;;;;;13.02;2.50;;;21.70;47.20;;;;;;5033746;28;20049;-60
2023/11/22 01:23:01;;;;;;;14.80;2.22;;;21.60;46.70;;;;;;5035670;28;20161;-63
2023/11/22 01:25:28;;;;;;;10.77;2.72;;;21.60;47.20;;;;;;5034638;28;20036;-62
2023/11/22 01:27:55;;;;;;;19.40;3.05;;;21.50;47.20;;;;;;5033568;28;20523;-60
2023/11/22 01:30:22;;;;;;;13.27;3.42;;;21.40;47.40;;;;;;5032906;28;20070;-61
2023/11/22 01:32:49;;;;;;;17.25;3.90;;;21.30;47.70;;;;;;5032273;28;20046;-62
2023/11/22 01:35:15;;;;;;;29.90;4.45;;;21.30;47.90;;;;;;5033761;28;20039;-60
2023/11/22 01:37:42;;;;;;;24.20;5.38;;;21.10;47.80;;;;;;5033792;28;20043;-62
2023/11/22 01:40:09;;;;;;;17.00;5.25;;;21.10;47.80;;;;;;5035313;28;20055;-62
2023/11/22 01:42:36;;;;;;;21.55;4.60;;;21.00;48.10;;;;;;5029756;28;20074;-62
2023/11/22 01:45:04;;;;;;;24.42;3.78;;;21.00;47.50;;;;;;5032652;28;20036;-61
2023/11/22 01:47:31;;;;;;;17.58;3.95;;;20.90;48.00;;;;;;5031270;28;20395;-63
2023/11/22 01:49:58;;;;;;;20.27;3.92;;;20.90;47.60;;;;;;5029473;28;20050;-60
2023/11/22 01:52:25;;;;;;;17.73;3.63;;;20.90;47.90;;;;;;5030474;28;20139;-64
2023/11/22 01:54:51;;;;;;;20.88;3.35;;;20.80;47.60;;;;;;5032764;28;20158;-62
2023/11/22 01:57:19;;;;;;;13.60;3.70;;;20.80;47.90;;;;;;5034627;28;20405;-60
2023/11/22 01:59:47;;;;;;;9.63;2.97;;;20.70;48.10;;;;;;5032449;28;20067;-63
2023/11/22 02:02:13;;;;;;;15.70;3.42;;;20.70;47.60;;;;;;5032027;28;20050;-60
2023/11/22 02:04:40;;;;;;;19.90;3.47;;;20.70;48.20;;;;;;5034282;28;20489;-59
2023/11/22 02:07:06;;;;;;;13.13;3.35;;;20.60;48.10;;;;;;5033913;28;20082;-61
2023/11/22 02:09:33;;;;;;;16.17;3.90;;;20.60;48.50;;;;;;5033122;28;20055;-62
2023/11/22 02:11:59;;;;;;;19.23;3.78;;;20.50;48.10;;;;;;5031107;28;20052;-62
2023/11/22 02:14:26;;;;;;;21.83;4.00;;;20.40;48.30;;;;;;5031443;28;20066;-62
2023/11/22 02:16:52;;;;;;;23.13;4.70;;;20.40;48.10;;;;;;5032100;28;20055;-66
2023/11/22 02:19:19;;;;;;;24.08;4.95;;;20.30;49.20;;;;;;5033366;28;20066;-62
2023/11/22 02:21:47;;;;;;;29.42;6.72;;;20.30;49.10;;;;;;5030879;28;20442;-62
2023/11/22 02:24:13;;;;;;;27.35;10.10;;;20.30;49.50;;;;;;5033340;28;20051;-60
2023/11/22 02:26:45;;;;;;;27.63;7.32;;;20.20;49.60;;;;;;5037363;28;20037;-62
2023/11/22 02:29:12;;;;;;;18.00;4.55;;;20.10;49.10;;;;;;5033597;28;20530;-62
2023/11/22 02:31:43;;;;;;;19.45;4.72;;;20.10;49.50;;;;;;5031010;28;20189;-62
2023/11/22 02:34:09;;;;;;;28.23;4.45;;;20.00;49.70;;;;;;5032077;28;20135;-59
2023/11/22 02:36:36;;;;;;;28.55;4.57;;;19.80;50.00;;;;;;5030863;28;20043;-60
2023/11/22 02:39:03;;;;;;;22.25;4.18;;;19.80;50.60;;;;;;5031696;28;20201;-63
2023/11/22 02:41:33;;;;;;;20.70;4.22;;;19.70;50.50;;;;;;5033849;28;20043;-62
2023/11/22 02:44:00;;;;;;;21.52;4.57;;;19.60;50.60;;;;;;5033668;28;20047;-59
2023/11/22 02:46:26;;;;;;;17.48;4.97;;;19.60;51.00;;;;;;5031918;28;20413;-58
2023/11/22 02:48:56;;;;;;;22.63;5.10;;;19.50;50.90;;;;;;5030371;28;20519;-61
2023/11/22 02:51:22;;;;;;;22.50;4.60;;;19.40;51.30;;;;;;5032063;28;20497;-62
2023/11/22 02:53:49;;;;;;;25.80;4.70;;;19.40;51.90;;;;;;5031716;28;20489;-61
2023/11/22 02:56:16;;;;;;;28.55;5.55;;;19.40;51.80;;;;;;5031881;28;20494;-62
2023/11/22 02:58:43;;;;;;;30.83;4.65;;;19.30;52.50;;;;;;5029844;28;20061;-61
2023/11/22 03:01:09;;;;;;;27.10;5.90;;;19.30;52.70;;;;;;5031744;28;20131;-62
2023/11/22 03:03:36;;;;;;;27.63;5.10;;;19.20;53.10;;;;;;5032461;28;20048;-60
2023/11/22 03:06:02;;;;;;;23.92;5.65;;;19.10;53.60;;;;;;5032279;28;20058;-63
2023/11/22 03:08:29;;;;;;;28.15;5.20;;;19.10;54.30;;;;;;5033017;28;20047;-63
2023/11/22 03:10:56;;;;;;;26.45;5.53;;;19.00;53.70;;;;;;5030370;28;20045;-63
2023/11/22 03:13:22;;;;;;;25.88;5.57;;;18.90;53.70;;;;;;5032309;28;20043;-62
2023/11/22 03:15:49;;;;;;;34.83;5.90;;;18.90;54.30;;;;;;5033851;28;20058;-62
2023/11/22 03:18:16;;;;;;;32.25;6.90;;;18.80;54.70;;;;;;5033284;28;20059;-63
2023/11/22 03:20:43;;;;;;;30.30;5.50;;;18.80;54.30;;;;;;5034019;28;20053;-63
2023/11/22 03:23:10;;;;;;;35.40;5.15;;;18.80;54.10;;;;;;5031996;28;20044;-63
2023/11/22 03:25:37;;;;;;;29.40;5.03;;;18.80;54.50;;;;;;5032942;28;20452;-63
2023/11/22 03:28:04;;;;;;;34.50;5.88;;;18.70;54.90;;;;;;5031349;28;20108;-62
2023/11/22 03:30:30;;;;;;;34.63;5.97;;;18.70;54.30;;;;;;5030102;28;20089;-63
2023/11/22 03:32:56;;;;;;;30.60;9.10;;;18.70;54.40;;;;;;5034136;28;20052;-63
2023/11/22 03:35:23;;;;;;;33.00;10.57;;;18.60;54.70;;;;;;5032358;28;20500;-63
2023/11/22 03:37:49;;;;;;;33.92;8.73;;;18.60;55.00;;;;;;5033991;28;20052;-62
2023/11/22 03:40:16;;;;;;;35.33;7.72;;;18.50;54.80;;;;;;5035119;28;20053;-63
2023/11/22 03:42:42;;;;;;;27.90;7.30;;;18.50;54.70;;;;;;5035275;28;20043;-62
2023/11/22 03:45:09;;;;;;;37.42;6.80;;;18.50;55.10;;;;;;5037166;28;20048;-62
2023/11/22 03:47:37;;;;;;;38.47;7.43;;;18.40;55.30;;;;;;5036923;28;20041;-62
2023/11/22 03:50:05;;;;;;;68.50;8.10;;;18.40;55.40;;;;;;5035834;28;20048;-63
2023/11/22 03:52:32;;;;;;;23.98;7.25;;;18.40;54.90;;;;;;5035115;28;20048;-62
2023/11/22 03:54:59;;;;;;;34.28;7.95;;;18.40;54.80;;;;;;5033839;28;20042;-62
2023/11/22 03:57:25;;;;;;;33.90;7.88;;;18.40;54.40;;;;;;5035689;28;20070;-63
2023/11/22 03:59:52;;;;;;;32.35;7.05;;;18.40;54.10;;;;;;5034501;28;20058;-63
2023/11/22 04:02:18;;;;;;;26.77;7.65;;;18.40;54.10;;;;;;5036273;28;20047;-61
2023/11/22 04:04:45;;;;;;;32.58;7.78;;;18.30;54.40;;;;;;5034509;28;20049;-62
2023/11/22 04:07:11;;;;;;;30.27;7.07;;;18.30;54.70;;;;;;5036125;28;20459;-62
2023/11/22 04:09:39;;;;;;;50.05;8.77;;;18.20;54.50;;;;;;5035604;28;20048;-62
2023/11/22 04:12:06;;;;;;;23.85;7.38;;;18.20;55.10;;;;;;5033567;28;20394;-62
2023/11/22 04:14:32;;;;;;;38.63;8.75;;;18.10;55.60;;;;;;5035492;28;20441;-61
2023/11/22 04:16:59;;;;;;;30.20;7.90;;;18.10;55.70;;;;;;5035177;28;20042;-62
2023/11/22 04:19:25;;;;;;;33.10;8.02;;;18.00;55.80;;;;;;5036488;28;20168;-61
2023/11/22 04:21:54;;;;;;;50.65;11.65;;;18.00;56.80;;;;;;5035024;28;20045;-60
2023/11/22 04:24:20;;;;;;;51.75;10.35;;;17.90;56.40;;;;;;5035164;28;20089;-60
2023/11/22 04:26:47;;;;;;;40.85;10.88;;;17.90;55.60;;;;;;5036928;28;20126;-62
2023/11/22 04:29:13;;;;;;;26.35;9.77;;;17.90;55.40;;;;;;5035516;28;20538;-60
2023/11/22 04:31:40;;;;;;;47.63;10.63;;;17.90;55.70;;;;;;5031416;28;20058;-64
2023/11/22 04:34:06;;;;;;;42.42;9.55;;;17.90;55.40;;;;;;5035629;28;20108;-62
2023/11/22 04:36:33;;;;;;;30.73;9.80;;;17.90;55.30;;;;;;5033521;28;20045;-62
2023/11/22 04:39:00;;;;;;;32.35;7.97;;;17.80;54.70;;;;;;5033792;28;20069;-61
2023/11/22 04:41:26;;;;;;;35.33;8.65;;;17.80;54.60;;;;;;5036640;28;20063;-62
2023/11/22 04:43:53;;;;;;;22.80;7.65;;;17.80;54.50;;;;;;5033652;28;20104;-63
2023/11/22 04:46:19;;;;;;;30.05;7.90;;;17.80;54.10;;;;;;5032036;28;20057;-62
2023/11/22 04:48:50;;;;;;;27.75;6.97;;;17.70;54.90;;;;;;5033241;28;20064;-61
2023/11/22 04:51:17;;;;;;;24.98;7.38;;;17.70;54.80;;;;;;5034569;28;20046;-62
2023/11/22 04:53:44;;;;;;;30.85;8.07;;;17.70;55.10;;;;;;5033600;28;20079;-61
2023/11/22 04:56:10;;;;;;;34.28;8.10;;;17.60;55.30;;;;;;5033938;28;20214;-62
2023/11/22 04:58:37;;;;;;;28.95;7.72;;;17.60;55.40;;;;;;5032874;28;20148;-63
2023/11/22 05:01:04;;;;;;;23.30;7.30;;;17.50;55.20;;;;;;5035430;28;20064;-63
2023/11/22 05:03:30;;;;;;;25.70;7.63;;;17.50;55.80;;;;;;5034868;28;20045;-63
2023/11/22 05:05:57;;;;;;;27.42;7.47;;;17.50;56.50;;;;;;5035254;28;20136;-65
2023/11/22 05:08:25;;;;;;;31.73;7.45;;;17.40;55.90;;;;;;5032579;28;20046;-62
2023/11/22 05:10:51;;;;;;;25.45;7.55;;;17.40;55.40;;;;;;5034872;28;20185;-62
2023/11/22 05:13:18;;;;;;;33.50;8.18;;;17.40;55.50;;;;;;5032019;28;20050;-62
2023/11/22 05:15:44;;;;;;;38.65;9.25;;;17.40;55.60;;;;;;5034231;28;20054;-62
2023/11/22 05:18:11;;;;;;;36.42;9.50;;;17.40;55.50;;;;;;5035656;28;20491;-61
2023/11/22 05:20:37;;;;;;;28.60;7.80;;;17.40;55.60;;;;;;5034149;28;20050;-63
2023/11/22 05:23:04;;;;;;;36.65;8.55;;;17.30;54.80;;;;;;5035175;28;20058;-62
2023/11/22 05:25:31;;;;;;;26.67;8.57;;;17.30;54.70;;;;;;5035134;28;20051;-64
2023/11/22 05:27:58;;;;;;;23.63;8.27;;;17.30;54.30;;;;;;5032287;28;20048;-64
2023/11/22 05:30:25;;;;;;;29.17;8.70;;;17.30;54.10;;;;;;5034084;28;20480;-63
2023/11/22 05:32:52;;;;;;;27.17;9.05;;;17.30;55.20;;;;;;5035689;28;20068;-63
2023/11/22 05:35:19;;;;;;;23.00;9.32;;;17.30;54.30;;;;;;5032244;28;20514;-60
2023/11/22 05:37:46;;;;;;;23.92;9.13;;;17.30;54.30;;;;;;5035917;28;20515;-62
2023/11/22 05:40:15;;;;;;;24.25;7.95;;;17.30;53.90;;;;;;5033644;28;20455;-61
2023/11/22 05:42:42;;;;;;;24.67;7.93;;;17.30;54.20;;;;;;5034309;28;20943;-61
2023/11/22 05:45:09;;;;;;;25.70;7.35;;;17.30;53.90;;;;;;5032700;28;20499;-61
2023/11/22 05:47:35;;;;;;;19.58;6.20;;;17.20;54.30;;;;;;5031519;28;20045;-61
2023/11/22 05:50:02;;;;;;;18.63;7.13;;;17.20;54.60;;;;;;5032297;28;20511;-63
2023/11/22 05:52:28;;;;;;;18.40;7.25;;;17.20;54.40;;;;;;5032782;28;20050;-61
2023/11/22 05:54:56;;;;;;;19.90;7.32;;;17.10;54.40;;;;;;5035993;28;20050;-62
2023/11/22 05:57:22;;;;;;;24.20;7.75;;;17.20;54.10;;;;;;5034187;28;20481;-61
2023/11/22 05:59:49;;;;;;;27.25;8.63;;;17.10;53.90;;;;;;5031778;28;20510;-61
2023/11/22 06:02:15;;;;;;;23.90;8.27;;;17.10;53.90;;;;;;5034060;28;20468;-63
2023/11/22 06:04:42;;;;;;;22.25;8.05;;;17.10;53.70;;;;;;5032861;28;20052;-62
2023/11/22 06:07:09;;;;;;;26.23;7.90;;;17.10;54.20;;;;;;5034117;28;20049;-62
2023/11/22 06:09:36;;;;;;;19.00;7.95;;;17.10;54.50;;;;;;5032379;28;20080;-61
2023/11/22 06:12:02;;;;;;;23.05;7.55;;;17.00;54.30;;;;;;5033352;28;20047;-62
2023/11/22 06:14:29;;;;;;;18.77;7.95;;;17.00;54.10;;;;;;5031252;28;20056;-61
2023/11/22 06:16:55;;;;;;;23.15;8.20;;;17.00;53.90;;;;;;5030993;28;20416;-62
2023/11/22 06:19:22;;;;;;;20.05;8.00;;;17.00;54.20;;;;;;5034569;28;20065;-61
2023/11/22 06:21:48;;;;;;;16.90;6.72;;;16.90;54.50;;;;;;5032593;28;20154;-60
2023/11/22 06:24:18;;;;;;;14.63;6.30;;;16.90;54.40;;;;;;5032135;28;20045;-62
2023/11/22 06:26:47;;;;;;;24.02;6.63;;;16.90;55.10;;;;;;5031479;28;20715;-62
2023/11/22 06:29:14;;;;;;;18.52;5.97;;;16.80;55.40;;;;;;5034330;28;20179;-60
2023/11/22 06:31:41;;;;;;;12.48;5.32;;;16.80;54.80;;;;;;5030580;28;20058;-62
2023/11/22 06:34:07;;;;;;;17.52;5.78;;;16.80;55.10;;;;;;5032581;28;20079;-66
2023/11/22 06:36:34;;;;;;;19.00;5.20;;;16.80;55.20;;;;;;5031360;28;20534;-66
2023/11/22 06:39:01;;;;;;;14.68;5.60;;;16.70;55.40;;;;;;5031535;28;20115;-64
2023/11/22 06:41:28;;;;;;;15.75;5.50;;;16.70;54.10;;;;;;5034146;28;20411;-63
2023/11/22 06:43:55;;;;;;;14.23;5.07;;;16.70;54.90;;;;;;5032930;28;20506;-67
2023/11/22 06:46:22;;;;;;;15.70;4.72;;;16.70;55.10;;;;;;5031759;28;20413;-64
2023/11/22 06:48:49;;;;;;;16.65;5.95;;;16.70;55.40;;;;;;5032704;28;20423;-65
2023/11/22 06:51:18;;;;;;;17.50;5.35;;;16.60;55.70;;;;;;5035674;28;20065;-66
2023/11/22 06:53:45;;;;;;;18.05;4.70;;;16.60;55.30;;;;;;5033950;28;20073;-66
2023/11/22 06:56:12;;;;;;;9.82;4.13;;;16.70;54.20;;;;;;5030136;28;20046;-63
2023/11/22 06:58:39;;;;;;;10.35;3.78;;;16.70;53.70;;;;;;5033881;28;20058;-64
2023/11/22 07:01:07;;;;;;;12.20;4.10;;;16.70;54.30;;;;;;5031037;28;20052;-66
2023/11/22 07:03:33;;;;;;;19.48;4.78;;;16.80;53.90;;;;;;5031854;28;20116;-65
2023/11/22 07:06:00;;;;;;;11.85;4.30;;;16.80;53.90;;;;;;5034332;28;20046;-63
2023/11/22 07:08:28;;;;;;;15.80;4.57;;;16.70;53.80;;;;;;5034028;28;20110;-64
2023/11/22 07:10:56;;;;;;;12.35;4.20;;;16.70;54.90;;;;;;5034447;28;20116;-60
2023/11/22 07:13:24;;;;;;;11.25;4.45;;;16.60;54.70;;;;;;5030438;28;20051;-62
2023/11/22 07:15:51;;;;;;;11.25;5.07;;;16.60;55.80;;;;;;5030749;28;20512;-64
2023/11/22 07:18:18;;;;;;;20.02;5.38;;;16.60;55.90;;;;;;5034818;28;20076;-66
2023/11/22 07:20:44;;;;;;;17.85;5.53;;;16.50;55.10;;;;;;5035711;28;20048;-60
2023/11/22 07:23:13;;;;;;;11.32;5.07;;;16.50;54.50;;;;;;5037663;28;20038;-63
2023/11/22 07:25:41;;;;;;;13.13;5.90;;;16.50;54.40;;;;;;5034056;28;20047;-64
2023/11/22 07:28:08;;;;;;;13.18;5.50;;;16.60;53.90;;;;;;5035857;28;20136;-63
2023/11/22 07:30:38;;;;;;;10.52;3.90;;;16.60;53.70;;;;;;5036827;28;20097;-65
2023/11/22 07:33:06;;;;;;;11.45;3.40;;;16.60;53.10;;;;;;5035296;28;20047;-68
2023/11/22 07:35:32;;;;;;;18.80;4.20;;;16.70;53.30;;;;;;5038501;28;20406;-65
2023/11/22 07:37:59;;;;;;;8.95;3.58;;;16.70;52.90;;;;;;5035308;28;20038;-65
2023/11/22 07:40:25;;;;;;;16.95;3.60;;;16.80;53.40;;;;;;5034053;28;20112;-65
2023/11/22 07:42:52;;;;;;;11.55;4.53;;;16.80;53.30;;;;;;5034660;28;20136;-65
2023/11/22 07:45:19;;;;;;;12.30;3.70;;;16.80;53.90;;;;;;5036488;28;20100;-64
2023/11/22 07:47:46;;;;;;;12.20;3.65;;;16.70;53.80;;;;;;5036254;28;20049;-63
2023/11/22 07:50:13;;;;;;;9.57;3.38;;;16.70;54.30;;;;;;5036309;28;20517;-64
2023/11/22 07:52:41;;;;;;;11.77;3.33;;;16.60;53.70;;;;;;5036053;28;20402;-64
2023/11/22 07:55:09;;;;;;;9.25;2.88;;;16.60;53.90;;;;;;5034647;28;20375;-66
2023/11/22 07:57:36;;;;;;;9.25;2.72;;;16.60;54.30;;;;;;5035988;28;20594;-65
2023/11/22 08:00:07;;;;;;;5.00;2.20;;;16.50;54.20;;;;;;5035533;28;20072;-65
2023/11/22 08:02:34;;;;;;;7.75;2.00;;;16.50;53.90;;;;;;5038236;28;20066;-64
2023/11/22 08:05:03;;;;;;;8.90;2.60;;;16.50;54.00;;;;;;5036168;28;20042;-66
2023/11/22 08:07:29;;;;;;;6.95;2.85;;;16.50;53.70;;;;;;5034399;28;20104;-64
2023/11/22 08:09:56;;;;;;;10.27;4.63;;;16.50;53.90;;;;;;5035605;28;20045;-66
2023/11/22 08:12:23;;;;;;;17.42;6.20;;;16.50;54.30;;;;;;5035418;28;20058;-62
2023/11/22 08:14:50;;;;;;;15.23;6.57;;;16.50;54.40;;;;;;5033478;28;20057;-63
2023/11/22 08:17:16;;;;;;;11.95;4.75;;;16.40;55.00;;;;;;5032854;28;20054;-59
2023/11/22 08:19:43;;;;;;;11.38;4.68;;;16.40;56.20;;;;;;5035489;28;20070;-61
2023/11/22 08:22:09;;;;;;;11.18;4.60;;;16.30;55.60;;;;;;5035967;28;20059;-62
2023/11/22 08:24:36;;;;;;;10.23;4.90;;;16.20;55.80;;;;;;5034433;28;20185;-63
2023/11/22 08:27:03;;;;;;;11.82;4.60;;;16.10;55.50;;;;;;5034623;28;20164;-63
2023/11/22 08:29:30;;;;;;;11.15;4.80;;;16.10;56.00;;;;;;5032620;28;20550;-63
2023/11/22 08:31:58;;;;;;;9.00;4.20;;;16.10;56.90;;;;;;5033601;28;20055;-61
2023/11/22 08:34:24;;;;;;;16.60;4.18;;;16.00;56.30;;;;;;5033360;28;20058;-60
2023/11/22 08:36:50;;;;;;;8.98;4.07;;;15.90;56.80;;;;;;5034952;28;20107;-63
2023/11/22 08:39:17;;;;;;;7.93;3.80;;;15.90;57.60;;;;;;5032169;28;20059;-62
2023/11/22 08:41:43;;;;;;;12.35;4.10;;;15.90;57.60;;;;;;5034333;28;20057;-61
2023/11/22 08:44:10;;;;;;;12.80;3.67;;;15.80;58.10;;;;;;5035150;28;20590;-61
2023/11/22 08:46:36;;;;;;;15.27;2.90;;;15.80;56.90;;;;;;5035211;28;20091;-62
2023/11/22 08:49:03;;;;;;;10.48;2.70;;;15.70;56.80;;;;;;5033826;28;20057;-61
2023/11/22 08:51:29;;;;;;;4.70;2.00;;;15.70;56.90;;;;;;5035622;28;20579;-62
2023/11/22 08:53:56;;;;;;;3.85;1.90;;;15.70;57.30;;;;;;5036663;28;20163;-62
2023/11/22 08:56:22;;;;;;;7.28;2.00;;;15.70;56.90;;;;;;5034088;28;20067;-62
2023/11/22 08:58:49;;;;;;;5.72;2.00;;;15.70;57.20;;;;;;5031520;28;20070;-63
2023/11/22 09:01:15;;;;;;;6.93;2.60;;;15.70;58.20;;;;;;5034836;28;20424;-62
2023/11/22 09:03:43;;;;;;;9.30;2.85;;;15.60;57.90;;;;;;5036266;28;20081;-62
2023/11/22 09:06:10;;;;;;;6.05;3.00;;;15.60;57.90;;;;;;5034466;28;20050;-63
2023/11/22 09:08:36;;;;;;;15.13;4.65;;;15.60;58.30;;;;;;5035897;28;20117;-63
2023/11/22 09:11:06;;;;;;;14.38;4.68;;;15.50;58.00;;;;;;5035595;28;20061;-62
2023/11/22 09:13:32;;;;;;;9.68;4.05;;;15.50;57.80;;;;;;5034930;28;20142;-61
2023/11/22 09:15:59;;;;;;;8.77;4.45;;;15.50;58.30;;;;;;5038115;28;20070;-61
2023/11/22 09:18:26;;;;;;;7.50;4.13;;;15.50;58.80;;;;;;5036734;28;20070;-62
2023/11/22 09:20:53;;;;;;;12.32;3.97;;;15.40;58.30;;;;;;5036511;28;20065;-63
2023/11/22 09:23:20;;;;;;;8.95;4.22;;;15.40;58.50;;;;;;5034549;28;20065;-62
2023/11/22 09:25:47;;;;;;;11.65;3.72;;;15.40;59.00;;;;;;5031869;28;20469;-61
2023/11/22 09:28:15;;;;;;;13.15;3.67;;;15.40;59.30;;;;;;5033995;28;20062;-62
2023/11/22 09:30:43;;;;;;;10.82;3.95;;;15.30;58.90;;;;;;5036857;28;20094;-62
2023/11/22 09:33:10;;;;;;;13.43;3.58;;;15.30;59.20;;;;;;5035125;28;20061;-62
2023/11/22 09:35:38;;;;;;;6.10;3.55;;;15.40;59.30;;;;;;5034517;28;20050;-62
2023/11/22 09:38:12;;;;;;;8.27;3.92;;;15.30;59.30;;;;;;5033701;28;20584;-61
2023/11/22 09:40:46;;;;;;;12.40;3.50;;;15.30;60.30;;;;;;5032797;28;20056;-61
2023/11/22 09:43:20;;;;;;;9.07;3.30;;;15.30;59.80;;;;;;5031253;28;20553;-61
2023/11/22 09:45:48;;;;;;;9.35;3.33;;;15.20;58.80;;;;;;5036304;28;20063;-61
2023/11/22 09:48:16;;;;;;;8.45;3.80;;;15.20;59.40;;;;;;5033257;28;20134;-61
2023/11/22 09:51:03;;;;;;;7.50;3.53;;;15.20;59.70;;;;;;5033226;28;20154;-62
2023/11/22 09:53:43;;;;;;;13.07;3.63;;;15.20;59.40;;;;;;5034380;28;20100;-61
2023/11/22 09:56:10;;;;;;;15.48;3.10;;;15.10;59.10;;;;;;5034299;28;20050;-63
2023/11/22 09:58:44;;;;;;;10.35;3.20;;;15.20;59.00;;;;;;5031459;28;20077;-64
2023/11/22 10:01:14;;;;;;;6.35;2.83;;;15.10;58.70;;;;;;5032932;28;20067;-62
2023/11/22 10:03:41;;;;;;;5.20;2.42;;;15.10;59.10;;;;;;5033793;28;20064;-61
2023/11/22 10:06:08;;;;;;;8.57;3.33;;;15.10;59.30;;;;;;5034298;28;20124;-63
2023/11/22 10:08:37;;;;;;;8.07;2.97;;;15.00;59.30;;;;;;5031447;28;20061;-62
2023/11/22 10:11:04;;;;;;;9.60;3.10;;;15.10;59.10;;;;;;5031113;28;20493;-64
2023/11/22 10:13:30;;;;;;;10.40;3.47;;;15.00;59.30;;;;;;5031368;28;20060;-62
2023/11/22 10:16:13;;;;;;;7.72;3.75;;;15.00;59.80;;;;;;5034978;28;20091;-63
2023/11/22 10:18:49;;;;;;;7.57;3.42;;;15.00;60.80;;;;;;5033978;28;20432;-62
2023/11/22 10:21:27;;;;;;;8.32;2.90;;;15.00;60.30;;;;;;5027715;28;20054;-62
2023/11/22 10:24:04;;;;;;;6.78;3.50;;;14.90;60.10;;;;;;5032536;28;20053;-64
2023/11/22 10:26:30;;;;;;;;;;;14.80;60.40;;;;;;5032189;28;20063;-62
2023/11/22 10:28:58;;;;;;;10.00;3.40;;;14.80;60.30;;;;;;5032909;28;20033;-63
2023/11/22 10:31:25;;;;;;;6.22;3.30;;;14.80;60.00;;;;;;5030401;28;20624;-64
2023/11/22 10:33:53;;;;;;;15.25;3.47;;;14.80;60.60;;;;;;5032617;28;20417;-63
2023/11/22 10:36:20;;;;;;;10.13;3.58;;;14.80;60.10;;;;;;5031457;28;20056;-63
2023/11/22 10:38:47;;;;;;;8.55;3.33;;;14.70;60.80;;;;;;5033733;28;20075;-63
2023/11/22 10:41:14;;;;;;;10.48;3.55;;;14.70;61.90;;;;;;5030846;28;20071;-62
2023/11/22 10:43:44;;;;;;;10.57;3.70;;;14.70;62.00;;;;;;5031041;28;20503;-64
2023/11/22 10:46:12;;;;;;;8.60;3.50;;;14.60;61.60;;;;;;5031611;28;20102;-62
2023/11/22 10:48:39;;;;;;;9.65;3.70;;;14.60;61.60;;;;;;5032012;28;20114;-63
2023/11/22 10:51:06;;;;;;;9.95;3.63;;;14.60;62.10;;;;;;5034640;28;20146;-61
2023/11/22 10:53:38;;;;;;;8.82;3.60;;;14.60;62.00;;;;;;5034414;28;20056;-62
2023/11/22 10:56:15;;;;;;;13.43;3.65;;;14.60;62.20;;;;;;5036471;28;20089;-63
2023/11/22 10:59:02;;;;;;;5.47;3.38;;;14.50;62.60;;;;;;5033215;28;20080;-63
2023/11/22 11:01:33;;;;;;;9.52;3.67;;;14.50;63.00;;;;;;5035551;28;20143;-63
2023/11/22 11:04:13;;;;;;;15.20;3.55;;;14.40;63.20;;;;;;5032438;28;20062;-62
2023/11/22 11:06:42;;;;;;;7.65;3.45;;;14.40;63.90;;;;;;5036217;28;20422;-62
2023/11/22 11:09:08;;;;;;;6.68;3.15;;;14.40;64.20;;;;;;5032861;28;20058;-61
2023/11/22 11:11:36;;;;;;;5.45;2.75;;;14.30;63.70;;;;;;5041230;28;20055;-59
2023/11/22 11:14:05;;;;;;;5.43;3.10;;;14.30;64.10;;;;;;5035434;28;20119;-64
2023/11/22 11:16:41;;;;;;;7.93;2.83;;;14.40;64.20;;;;;;5035086;28;20073;-64
2023/11/22 11:19:09;;;;;;;6.70;2.80;;;14.30;63.30;;;;;;5036421;28;20120;-64
2023/11/22 11:21:40;;;;;;;9.07;2.97;;;14.50;63.80;;;;;;5035556;28;20066;-64
2023/11/22 11:24:07;;;;;;;9.98;2.50;;;14.60;63.50;;;;;;5036601;28;20090;-64
2023/11/22 11:26:37;;;;;;;7.20;2.58;;;14.80;62.80;;;;;;5037780;28;20537;-63
2023/11/22 11:29:06;;;;;;;9.32;3.00;;;14.70;62.30;;;;;;5035522;28;20107;-64
2023/11/22 11:31:37;;;;;;;9.48;2.33;;;14.60;62.10;;;;;;5034053;28;20403;-63
2023/11/22 11:34:06;;;;;;;7.32;2.35;;;14.70;62.50;;;;;;5037343;28;20563;-64
2023/11/22 11:36:34;;;;;;;11.13;2.53;;;14.80;62.40;;;;;;5037671;28;20061;-62
2023/11/22 11:39:05;;;;;;;14.60;2.90;;;14.80;62.20;;;;;;5034822;28;20128;-63
2023/11/22 11:41:33;;;;;;;16.88;3.38;;;14.90;61.80;;;;;;5035178;28;20075;-63
2023/11/22 11:44:03;;;;;;;9.70;3.30;;;14.90;61.60;;;;;;5035969;28;20413;-63
2023/11/22 11:46:30;;;;;;;11.52;3.17;;;15.00;62.20;;;;;;5035531;28;20053;-61
2023/11/22 11:49:02;;;;;;;8.77;3.30;;;15.00;61.40;;;;;;5035985;28;20056;-63
2023/11/22 11:51:29;;;;;;;11.82;3.83;;;14.90;61.80;;;;;;5037354;28;20406;-62
2023/11/22 11:53:57;;;;;;;43.60;19.60;;;14.90;62.60;;;;;;5034320;28;20069;-64
2023/11/22 11:56:29;;;;;;;16.40;3.70;;;14.90;62.80;;;;;;5035877;28;20061;-64
2023/11/22 11:58:59;;;;;;;16.92;4.20;;;14.90;63.20;;;;;;5035266;28;20381;-63
2023/11/22 12:01:32;;;;;;;13.85;4.55;;;15.00;62.50;;;;;;5035912;28;20052;-63
2023/11/22 12:04:01;;;;;;;13.38;4.85;;;14.90;63.00;;;;;;5032907;28;20619;-63
2023/11/22 12:06:31;;;;;;;16.55;4.75;;;14.80;63.30;;;;;;5040511;28;20137;-63
2023/11/22 12:08:58;;;;;;;17.95;4.78;;;14.70;63.90;;;;;;5036357;28;20078;-63
2023/11/22 12:11:30;;;;;;;15.35;4.65;;;14.70;64.40;;;;;;5035697;28;20069;-63
2023/11/22 12:14:00;;;;;;;18.25;4.65;;;14.60;64.60;;;;;;5036233;28;20173;-63
2023/11/22 12:16:27;;;;;;;12.57;4.32;;;14.50;63.80;;;;;;5033542;28;20133;-62
2023/11/22 12:18:54;;;;;;;13.95;4.22;;;14.50;64.40;;;;;;5035598;28;20075;-64
2023/11/22 12:21:27;;;;;;;16.83;4.93;;;14.40;64.80;;;;;;5033727;28;20134;-63
2023/11/22 12:23:55;;;;;;;15.52;4.45;;;14.60;64.60;;;;;;5036021;28;20179;-63
2023/11/22 12:26:23;;;;;;;13.68;5.38;;;14.60;64.30;;;;;;5036976;28;20058;-62
2023/11/22 12:28:50;;;;;;;10.93;5.00;;;14.70;63.60;;;;;;5033455;28;20123;-63
2023/11/22 12:31:17;;;;;;;20.65;5.68;;;14.70;63.00;;;;;;5034697;28;20164;-63
2023/11/22 12:33:46;;;;;;;20.80;5.97;;;14.70;63.60;;;;;;5034930;28;20066;-63
2023/11/22 12:36:17;;;;;;;12.85;5.97;;;14.50;63.60;;;;;;5035099;28;20060;-63
2023/11/22 12:38:44;;;;;;;16.08;5.60;;;14.50;63.30;;;;;;5035425;28;20160;-62
2023/11/22 12:41:12;;;;;;;23.15;6.57;;;14.50;64.00;;;;;;5036528;28;20058;-64